Date,TemperatureHighF,TemperatureAvgF,TemperatureLowF,DewpointHighF,DewpointAvgF,DewpointLowF,HumidityHigh,HumidityAvg,HumidityLow,PressureMaxIn,PressureMinIn,WindSpeedMaxMPH,WindSpeedAvgMPH,GustSpeedMaxMPH,PrecipitationSumIn
2012-1-1,34,25,19,-100,-100,-100,0,0,100,0.00,40.00,0,-999,0,0.00
2012-1-2,46,34,20,-100,-100,-100,0,0,100,0.00,40.00,0,-999,0,0.00
2012-1-3,48,35,23,-100,-100,-100,0,0,100,0.00,40.00,0,-999,0,0.00
2012-1-4,46,39,24,-100,-100,-100,0,0,100,0.00,40.00,0,-999,0,0.00
2012-1-5,44,40,33,-100,-100,-100,0,0,100,0.00,40.00,0,-999,0,0.00
2012-1-6,38,27,18,-100,-100,-100,0,0,100,0.00,40.00,0,-999,0,0.00
2012-1-7,27,22,18,-100,-100,-100,0,0,100,0.00,40.00,0,-999,0,0.00
2012-1-8,27,22,18,-100,-100,-100,0,0,100,0.00,40.00,0,-999,0,0.00
2012-1-9,36,24,14,-100,-100,-100,0,0,100,0.00,40.00,0,-999,0,0.00
2012-1-10,32,25,17,-100,-100,-100,0,0,100,0.00,40.00,0,-999,0,0.06
2012-1-11,25,10,3,-100,-100,-100,0,0,100,0.00,40.00,0,-999,0,0.08
2012-1-12,24,13,4,-100,-100,-100,0,0,100,0.00,40.00,0,-999,0,0.00
2012-1-13,31,18,10,-100,-100,-100,0,0,100,0.00,40.00,0,-999,0,0.01
2012-1-14,40,37,31,-100,-100,-100,0,0,100,0.00,40.00,0,-999,0,0.00
2012-1-15,39,32,23,-100,-100,-100,0,0,100,0.00,40.00,0,-999,0,0.00
2012-1-16,23,13,7,-100,-100,-100,0,0,100,0.00,40.00,0,-999,0,0.06
2012-1-17,15,12,7,-100,-100,-100,0,0,100,0.00,40.00,0,-999,0,0.01
2012-1-18,31,23,15,-100,-100,-100,0,0,100,0.00,40.00,0,-999,0,0.17
2012-1-19,33,32,31,-100,-100,-100,0,0,100,0.00,40.00,0,-999,0,0.13
2012-1-20,35,33,32,-100,-100,-100,0,0,100,0.00,40.00,0,-999,0,0.15
2012-1-21,36,33,27,-100,-100,-100,0,0,100,0.00,40.00,0,-999,0,0.19
2012-1-22,27,21,20,-100,-100,-100,0,0,100,0.00,40.00,0,-999,0,0.12
2012-1-23,34,26,21,-100,-100,-100,0,0,100,0.00,40.00,0,-999,0,0.25
2012-1-24,29,18,12,-100,-100,-100,0,0,100,0.00,40.00,0,-999,0,0.29
2012-1-25,36,30,23,-100,-100,-100,0,0,100,0.00,40.00,0,-999,0,0.01
2012-1-26,32,31,25,-100,-100,-100,0,0,100,0.00,40.00,0,-999,0,0.13
2012-1-27,26,16,9,-100,-100,-100,0,0,100,0.00,40.00,0,-999,0,0.09
2012-1-28,25,18,10,-100,-100,-100,0,0,100,0.00,40.00,0,-999,0,0.00
2012-1-29,34,28,25,-100,-100,-100,0,0,100,0.00,40.00,0,-999,0,0.00
2012-1-30,34,29,24,-100,-100,-100,0,0,100,0.00,40.00,0,-999,0,0.00
2012-1-31,35,26,21,-100,-100,-100,0,0,100,0.00,40.00,0,-999,0,0.00
2012-2-1,39,29,21,-100,-100,-100,0,0,100,0.00,40.00,0,-999,0,0.00
2012-2-2,36,28,20,-100,-100,-100,0,0,100,0.00,40.00,0,-999,0,0.04
2012-2-3,38,21,15,-100,-100,-100,0,0,100,0.00,40.00,0,-999,0,0.04
2012-2-4,25,18,14,-100,-100,-100,0,0,100,0.00,40.00,0,-999,0,0.04
2012-2-5,37,25,15,-100,-100,-100,0,0,100,0.00,40.00,0,-999,0,0.00
2012-2-6,34,25,14,-100,-100,-100,0,0,100,0.00,40.00,0,-999,0,0.00
2012-2-7,40,24,13,-100,-100,-100,0,0,100,0.00,40.00,0,-999,0,0.00
2012-2-8,34,27,16,-100,-100,-100,0,0,100,0.00,40.00,0,-999,0,0.00
2012-2-9,38,25,20,-100,-100,-100,0,0,100,0.00,40.00,0,-999,0,0.00
2012-2-10,35,29,22,-100,-100,-100,0,0,100,0.00,40.00,0,-999,0,0.06
2012-2-11,45,34,26,-100,-100,-100,0,0,100,0.00,40.00,0,-999,0,0.03
2012-2-12,35,32,29,-100,-100,-100,0,0,100,0.00,40.00,0,-999,0,0.17
2012-2-13,38,28,20,-100,-100,-100,0,0,100,0.00,40.00,0,-999,0,0.12
2012-2-14,28,25,22,-100,-100,-100,0,0,100,0.00,40.00,0,-999,0,0.11
2012-2-15,36,24,13,-100,-100,-100,0,0,100,0.00,40.00,0,-999,0,0.02
2012-2-16,29,19,9,-100,-100,-100,0,0,100,0.00,40.00,0,-999,0,0.01
2012-2-17,37,25,18,-100,-100,-100,0,0,100,0.00,40.00,0,-999,0,0.03
2012-2-18,33,28,22,-100,-100,-100,0,0,100,0.00,40.00,0,-999,0,0.07
2012-2-19,33,20,16,-100,-100,-100,0,0,100,0.00,40.00,0,-999,0,0.27
2012-2-20,23,19,12,-100,-100,-100,0,0,100,0.00,40.00,0,-999,0,0.04
2012-2-21,35,28,22,-100,-100,-100,0,0,100,0.00,40.00,0,-999,0,0.32
2012-2-22,38,34,25,-100,-100,-100,0,0,100,0.00,40.00,0,-999,0,0.18
2012-2-23,32,22,15,-100,-100,-100,0,0,100,0.00,40.00,0,-999,0,0.02
2012-2-24,29,22,14,-100,-100,-100,0,0,100,0.00,40.00,0,-999,0,0.00
2012-2-25,33,22,16,-100,-100,-100,0,0,100,0.00,40.00,0,-999,0,0.05
2012-2-26,20,16,7,-100,-100,-100,0,0,100,0.00,40.00,0,-999,0,0.01
2012-2-27,38,21,8,-100,-100,-100,0,0,100,0.00,40.00,0,-999,0,0.01
2012-2-28,26,23,19,-100,-100,-100,0,0,100,0.00,40.00,0,-999,0,0.15
2012-2-29,29,23,16,-100,-100,-100,0,0,100,0.00,40.00,0,-999,0,0.09
2012-3-1,26,18,15,-100,-100,-100,0,0,100,0.00,40.00,0,-999,0,0.02
2012-3-2,29,19,9,-100,-100,-100,0,0,100,0.00,40.00,0,-999,0,0.05
2012-3-3,32,25,18,-100,-100,-100,0,0,100,0.00,40.00,0,-999,0,0.09
2012-3-4,38,33,28,-100,-100,-100,0,0,100,0.00,40.00,0,-999,0,0.05
2012-3-5,42,37,29,-100,-100,-100,0,0,100,0.00,40.00,0,-999,0,0.00
2012-3-6,41,31,18,-100,-100,-100,0,0,100,0.00,40.00,0,-999,0,0.28
2012-3-7,32,19,6,-100,-100,-100,0,0,100,0.00,40.00,0,-999,0,0.12
2012-3-8,41,27,13,-100,-100,-100,0,0,100,0.00,40.00,0,-999,0,0.09
2012-3-9,53,36,22,-100,-100,-100,0,0,100,0.00,40.00,0,-999,0,0.00
2012-3-10,51,43,27,-100,-100,-100,0,0,100,0.00,40.00,0,-999,0,0.01
2012-3-11,47,41,33,-100,-100,-100,0,0,100,0.00,40.00,0,-999,0,0.00
2012-3-12,47,39,34,-100,-100,-100,0,0,100,0.00,40.00,0,-999,0,0.01
2012-3-13,45,42,38,-100,-100,-100,0,0,100,0.00,40.00,0,-999,0,0.04
2012-3-14,40,38,35,-100,-100,-100,0,0,100,0.00,40.00,0,-999,0,0.10
2012-3-15,46,42,36,-100,-100,-100,0,0,100,0.00,40.00,0,-999,0,0.13
2012-3-16,45,41,37,-100,-100,-100,0,0,100,0.00,40.00,0,-999,0,0.09
2012-3-17,48,43,34,-100,-100,-100,0,0,100,0.00,40.00,0,-999,0,0.07
2012-3-18,43,35,28,-100,-100,-100,0,0,100,0.00,40.00,0,-999,0,0.34
2012-3-19,28,24,17,-100,-100,-100,0,0,100,0.00,40.00,0,-999,0,0.50
2012-3-20,30,24,15,-100,-100,-100,0,0,100,0.00,40.00,0,-999,0,0.14
2012-3-21,47,38,29,-100,-100,-100,0,0,100,0.00,40.00,0,-999,0,0.00
2012-3-22,57,48,34,-100,-100,-100,0,0,100,0.00,40.00,0,-999,0,0.00
2012-3-23,54,49,41,-100,-100,-100,0,0,100,0.00,40.00,0,-999,0,0.00
2012-3-24,56,47,34,-100,-100,-100,0,0,100,0.00,40.00,0,-999,0,0.00
2012-3-25,60,54,48,-100,-100,-100,0,0,100,0.00,40.00,0,-999,0,0.00
2012-3-26,49,37,32,-100,-100,-100,0,0,100,0.00,40.00,0,-999,0,0.01
2012-3-27,46,36,29,-100,-100,-100,0,0,100,0.00,40.00,0,-999,0,0.01
2012-3-28,46,41,33,-100,-100,-100,0,0,100,0.00,40.00,0,-999,0,0.08
2012-3-29,39,35,28,-100,-100,-100,0,0,100,0.00,40.00,0,-999,0,0.07
2012-3-30,45,40,37,-100,-100,-100,0,0,100,0.00,40.00,0,-999,0,0.09
2012-3-31,60,52,44,-100,-100,-100,0,0,100,0.00,40.00,0,-999,0,0.02
2012-4-1,56,37,30,-100,-100,-100,0,0,100,0.00,40.00,0,-999,0,0.02
2012-4-2,45,32,19,-100,-100,-100,0,0,100,0.00,40.00,0,-999,0,0.14
2012-4-3,56,39,25,-100,-100,-100,0,0,100,0.00,40.00,0,-999,0,0.03
2012-4-4,55,46,33,-100,-100,-100,0,0,100,0.00,40.00,0,-999,0,0.00
2012-4-5,47,37,26,-100,-100,-100,0,0,100,0.00,40.00,0,-999,0,0.01
2012-4-6,37,28,24,-100,-100,-100,0,0,100,0.00,40.00,0,-999,0,0.06
2012-4-7,42,31,20,-100,-100,-100,0,0,100,0.00,40.00,0,-999,0,0.02
2012-4-8,62,47,33,-100,-100,-100,0,0,100,0.00,40.00,0,-999,0,0.02
2012-4-9,65,58,37,-100,-100,-100,0,0,100,0.00,40.00,0,-999,0,0.00
2012-4-10,69,62,45,-100,-100,-100,0,0,100,0.00,40.00,0,-999,0,0.00
2012-4-11,68,58,40,-100,-100,-100,0,0,100,0.00,40.00,0,-999,0,0.04
2012-4-12,45,38,33,-100,-100,-100,0,0,100,0.00,40.00,0,-999,0,0.52
2012-4-13,49,38,30,-100,-100,-100,0,0,100,0.00,40.00,0,-999,0,0.03
2012-4-14,53,40,28,-100,-100,-100,0,0,100,0.00,40.00,0,-999,0,0.06
2012-4-15,46,35,27,-100,-100,-100,0,0,100,0.00,40.00,0,-999,0,0.01
2012-4-16,51,38,26,-100,-100,-100,0,0,100,0.00,40.00,0,-999,0,0.00
2012-4-17,51,42,35,-100,-100,-100,0,0,100,0.00,40.00,0,-999,0,0.05
2012-4-18,46,42,37,-100,-100,-100,0,0,100,0.00,40.00,0,-999,0,0.18
2012-4-19,46,41,36,-100,-100,-100,0,0,100,0.00,40.00,0,-999,0,0.04
2012-4-20,60,49,40,-100,-100,-100,0,0,100,0.00,40.00,0,-999,0,0.05
2012-4-21,68,55,40,-100,-100,-100,0,0,100,0.00,40.00,0,-999,0,0.03
2012-4-22,75,66,51,-100,-100,-100,0,0,100,0.00,40.00,0,-999,0,0.00
2012-4-23,77,66,49,-100,-100,-100,0,0,100,0.00,40.00,0,-999,0,0.01
2012-4-24,70,59,49,-100,-100,-100,0,0,100,0.00,40.00,0,-999,0,0.01
2012-4-25,70,57,44,-100,-100,-100,0,0,100,0.00,40.00,0,-999,0,0.00
2012-4-26,63,54,37,-100,-100,-100,0,0,100,0.00,40.00,0,-999,0,0.15
2012-4-27,38,32,28,-100,-100,-100,0,0,100,0.00,40.00,0,-999,0,0.25
2012-4-28,43,34,26,-100,-100,-100,0,0,100,0.00,40.00,0,-999,0,0.02
2012-4-29,50,39,31,-100,-100,-100,0,0,100,0.00,40.00,0,-999,0,0.01
2012-4-30,54,45,36,-100,-100,-100,0,0,100,0.00,40.00,0,-999,0,0.11
2012-5-1,50,45,40,-100,-100,-100,0,0,100,0.00,40.00,0,-999,0,0.20
2012-5-2,50,43,35,-100,-100,-100,0,0,100,0.00,40.00,0,-999,0,0.04
2012-5-3,59,47,40,-100,-100,-100,0,0,100,0.00,40.00,0,-999,0,0.00
2012-5-4,56,47,41,-100,-100,-100,0,0,100,0.00,40.00,0,-999,0,0.00
2012-5-5,44,37,31,-100,-100,-100,0,0,100,0.00,40.00,0,-999,0,0.08
2012-5-6,56,39,25,-100,-100,-100,0,0,100,0.00,40.00,0,-999,0,0.02
2012-5-7,63,45,26,-100,-100,-100,0,0,100,0.00,40.00,0,-999,0,0.00
2012-5-8,70,53,35,-100,-100,-100,0,0,100,0.00,40.00,0,-999,0,0.00
2012-5-9,74,65,50,-100,-100,-100,0,0,100,0.00,40.00,0,-999,0,0.05
2012-5-10,60,50,39,-100,-100,-100,0,0,100,0.00,40.00,0,-999,0,0.05
2012-5-11,63,46,28,-100,-100,-100,0,0,100,0.00,40.00,0,-999,0,0.00
2012-5-12,69,48,32,-100,-100,-100,0,0,100,0.00,40.00,0,-999,0,0.00
2012-5-13,74,57,36,-100,-100,-100,0,0,100,0.00,40.00,0,-999,0,0.00
2012-5-14,81,65,43,-100,-100,-100,0,0,100,0.00,40.00,0,-999,0,0.00
2012-5-15,81,68,49,-100,-100,-100,0,0,100,0.00,40.00,0,-999,0,0.00
2012-5-16,79,68,56,-100,-100,-100,0,0,100,0.00,40.00,0,-999,0,0.00
2012-5-17,69,60,51,-100,-100,-100,0,0,100,0.00,40.00,0,-999,0,0.05
2012-5-18,54,46,36,-100,-100,-100,0,0,100,0.00,40.00,0,-999,0,0.01
2012-5-19,63,48,33,-100,-100,-100,0,0,100,0.00,40.00,0,-999,0,0.01
2012-5-20,66,57,43,-100,-100,-100,0,0,100,0.00,40.00,0,-999,0,0.01
2012-5-21,77,66,51,-100,-100,-100,0,0,100,0.00,40.00,0,-999,0,0.01
2012-5-22,64,56,46,-100,-100,-100,0,0,100,0.00,40.00,0,-999,0,0.16
2012-5-23,48,42,34,-100,-100,-100,0,0,100,0.00,40.00,0,-999,0,0.05
2012-5-24,46,38,32,-100,-100,-100,0,0,100,0.00,40.00,0,-999,0,0.19
2012-5-25,55,42,32,-100,-100,-100,0,0,100,0.00,40.00,0,-999,0,0.24
2012-5-26,64,43,34,-100,-100,-100,0,0,100,0.00,40.00,0,-999,0,0.57
2012-5-27,37,35,33,-100,-100,-100,0,0,100,0.00,40.00,0,-999,0,0.60
2012-5-28,53,42,34,-100,-100,-100,0,0,100,0.00,40.00,0,-999,0,0.23
2012-5-29,67,53,38,-100,-100,-100,0,0,100,0.00,40.00,0,-999,0,0.08
2012-5-30,66,56,44,-100,-100,-100,0,0,100,0.00,40.00,0,-999,0,0.01
2012-5-31,70,57,43,-100,-100,-100,0,0,100,0.00,40.00,0,-999,0,0.00
2012-6-1,77,63,47,-100,-100,-100,0,0,100,0.00,40.00,0,-999,0,0.00
2012-6-2,76,68,58,-100,-100,-100,0,0,100,0.00,40.00,0,-999,0,0.01
2012-6-3,76,67,56,-100,-100,-100,0,0,100,0.00,40.00,0,-999,0,0.00
2012-6-4,83,71,53,-100,-100,-100,0,0,100,0.00,40.00,0,-999,0,0.02
2012-6-5,73,54,38,-100,-100,-100,0,0,100,0.00,40.00,0,-999,0,0.12
2012-6-6,58,43,34,-100,-100,-100,0,0,100,0.00,40.00,0,-999,0,0.07
2012-6-7,69,51,32,-100,-100,-100,0,0,100,0.00,40.00,0,-999,0,0.00
2012-6-8,68,56,46,-100,-100,-100,0,0,100,0.00,40.00,0,-999,0,0.00
2012-6-9,52,44,34,-100,-100,-100,0,0,100,0.00,40.00,0,-999,0,0.46
2012-6-10,50,42,35,-100,-100,-100,0,0,100,0.00,40.00,0,-999,0,0.02
2012-6-11,68,52,34,-100,-100,-100,0,0,100,0.00,40.00,0,-999,0,0.00
2012-6-12,72,59,45,-100,-100,-100,0,0,100,0.00,40.00,0,-999,0,0.00
2012-6-13,69,62,51,-100,-100,-100,0,0,100,0.00,40.00,0,-999,0,0.00
2012-6-14,73,57,41,-100,-100,-100,0,0,100,0.00,40.00,0,-999,0,0.00
2012-6-15,72,59,45,-100,-100,-100,0,0,100,0.00,40.00,0,-999,0,0.00
2012-6-16,79,61,45,-100,-100,-100,0,0,100,0.00,40.00,0,-999,0,0.00
2012-6-17,75,66,55,-100,-100,-100,0,0,100,0.00,40.00,0,-999,0,0.02
2012-6-18,66,60,49,-100,-100,-100,0,0,100,0.00,40.00,0,-999,0,0.02
2012-6-19,58,49,38,-100,-100,-100,0,0,100,0.00,40.00,0,-999,0,0.01
2012-6-20,69,59,35,-100,-100,-100,0,0,100,0.00,40.00,0,-999,0,0.00
2012-6-21,81,62,40,-100,-100,-100,0,0,100,0.00,40.00,0,-999,0,0.00
2012-6-22,79,69,55,-100,-100,-100,0,0,100,0.00,40.00,0,-999,0,0.00
2012-6-23,83,76,65,-100,-100,-100,0,0,100,0.00,40.00,0,-999,0,0.00
2012-6-24,84,76,63,-100,-100,-100,0,0,100,0.00,40.00,0,-999,0,0.00
2012-6-25,81,76,68,-100,-100,-100,0,0,100,0.00,40.00,0,-999,0,0.00
2012-6-26,73,66,48,-100,-100,-100,0,0,100,0.00,40.00,0,-999,0,0.01
2012-6-27,79,60,40,-100,-100,-100,0,0,100,0.00,40.00,0,-999,0,0.01
2012-6-28,80,68,51,-100,-100,-100,0,0,100,0.00,40.00,0,-999,0,0.00
2012-6-29,88,73,57,-100,-100,-100,0,0,100,0.00,40.00,0,-999,0,0.00
2012-6-30,88,76,54,-100,-100,-100,0,0,100,0.00,40.00,0,-999,0,0.00
2012-7-1,88,75,59,-100,-100,-100,0,0,100,0.00,40.00,0,-999,0,0.00
2012-7-2,88,73,53,-100,-100,-100,0,0,100,0.00,40.00,0,-999,0,0.00
2012-7-3,85,74,61,-100,-100,-100,0,0,100,0.00,40.00,0,-999,0,0.00
2012-7-4,87,70,53,-100,-100,-100,0,0,100,0.00,40.00,0,-999,0,0.00
2012-7-5,72,61,52,-100,-100,-100,0,0,100,0.00,40.00,0,-999,0,0.00
2012-7-6,85,64,46,-100,-100,-100,0,0,100,0.00,40.00,0,-999,0,0.00
2012-7-7,85,65,51,-100,-100,-100,0,0,100,0.00,40.00,0,-999,0,0.47
2012-7-8,88,69,55,-100,-100,-100,0,0,100,0.00,40.00,0,-999,0,0.47
2012-7-9,89,73,56,-100,-100,-100,0,0,100,0.00,40.00,0,-999,0,0.00
2012-7-10,93,72,57,-100,-100,-100,0,0,100,0.00,40.00,0,-999,0,0.00
2012-7-11,84,70,58,-100,-100,-100,0,0,100,0.00,40.00,0,-999,0,0.02
2012-7-12,94,73,55,-100,-100,-100,0,0,100,0.00,40.00,0,-999,0,0.02
2012-7-13,91,72,60,-100,-100,-100,0,0,100,0.00,40.00,0,-999,0,0.00
2012-7-14,77,62,56,-100,-100,-100,0,0,100,0.00,40.00,0,-999,0,0.02
2012-7-15,75,64,56,-100,-100,-100,0,0,100,0.00,40.00,0,-999,0,0.52
2012-7-16,76,61,54,-100,-100,-100,0,0,100,0.00,40.00,0,-999,0,0.44
2012-7-17,79,64,50,-100,-100,-100,0,0,100,0.00,40.00,0,-999,0,0.02
2012-7-18,83,72,57,-100,-100,-100,0,0,100,0.00,40.00,0,-999,0,0.01
2012-7-19,91,73,56,-100,-100,-100,0,0,100,0.00,40.00,0,-999,0,0.01
2012-7-20,86,72,60,-100,-100,-100,0,0,100,0.00,40.00,0,-999,0,0.01
2012-7-21,90,75,62,-100,-100,-100,0,0,100,0.00,40.00,0,-999,0,0.01
2012-7-22,88,68,57,-100,-100,-100,0,0,100,0.00,40.00,0,-999,0,0.06
2012-7-23,86,70,54,-100,-100,-100,0,0,100,0.00,40.00,0,-999,0,0.05
2012-7-24,81,67,59,-100,-100,-100,0,0,100,0.00,40.00,0,-999,0,0.03
2012-7-25,85,69,58,-100,-100,-100,0,0,100,0.00,40.00,0,-999,0,0.03
2012-7-26,90,71,53,-100,-100,-100,0,0,100,0.00,40.00,0,-999,0,0.00
2012-7-27,80,69,54,-100,-100,-100,0,0,100,0.00,40.00,0,-999,0,0.07
2012-7-28,86,71,54,-100,-100,-100,0,0,100,0.00,40.00,0,-999,0,0.01
2012-7-29,88,76,58,-100,-100,-100,0,0,100,0.00,40.00,0,-999,0,0.00
2012-7-30,93,79,54,-100,-100,-100,0,0,100,0.00,40.00,0,-999,0,0.00
2012-7-31,87,72,60,-100,-100,-100,0,0,100,0.00,40.00,0,-999,0,0.00
2012-8-1,87,70,57,-100,-100,-100,0,0,100,0.00,40.00,0,-999,0,0.07
2012-8-2,79,70,54,-100,-100,-100,0,0,100,0.00,40.00,0,-999,0,0.04
2012-8-3,79,65,50,-100,-100,-100,0,0,100,0.00,40.00,0,-999,0,0.01
2012-8-4,86,63,43,-100,-100,-100,0,0,100,0.00,40.00,0,-999,0,0.00
2012-8-5,93,73,54,-100,-100,-100,0,0,100,0.00,40.00,0,-999,0,0.00
2012-8-6,88,71,61,-100,-100,-100,0,0,100,0.00,40.00,0,-999,0,0.00
2012-8-7,92,72,55,-100,-100,-100,0,0,100,0.00,40.00,0,-999,0,0.00
2012-8-8,94,77,59,-100,-100,-100,0,0,100,0.00,40.00,0,-999,0,0.00
2012-8-9,93,77,61,-100,-100,-100,0,0,100,0.00,40.00,0,-999,0,0.00
2012-8-10,86,69,56,-100,-100,-100,0,0,100,0.00,40.00,0,-999,0,0.25
2012-8-11,86,68,53,-100,-100,-100,0,0,100,0.00,40.00,0,-999,0,0.01
2012-8-12,87,73,57,-100,-100,-100,0,0,100,0.00,40.00,0,-999,0,0.01
2012-8-13,91,74,59,-100,-100,-100,0,0,100,0.00,40.00,0,-999,0,0.01
2012-8-14,92,76,60,-100,-100,-100,0,0,100,0.00,40.00,0,-999,0,0.00
2012-8-15,86,70,56,-100,-100,-100,0,0,100,0.00,40.00,0,-999,0,0.01
2012-8-16,86,66,50,-100,-100,-100,0,0,100,0.00,40.00,0,-999,0,0.02
2012-8-17,89,70,53,-100,-100,-100,0,0,100,0.00,40.00,0,-999,0,0.01
2012-8-18,90,71,54,-100,-100,-100,0,0,100,0.00,40.00,0,-999,0,0.01
2012-8-19,84,68,52,-100,-100,-100,0,0,100,0.00,40.00,0,-999,0,0.01
2012-8-20,85,66,56,-100,-100,-100,0,0,100,0.00,40.00,0,-999,0,0.01
2012-8-21,88,69,53,-100,-100,-100,0,0,100,0.00,40.00,0,-999,0,0.01
2012-8-22,86,68,53,-100,-100,-100,0,0,100,0.00,40.00,0,-999,0,0.01
2012-8-23,85,72,56,-100,-100,-100,0,0,100,0.00,40.00,0,-999,0,0.01
2012-8-24,78,68,55,-100,-100,-100,0,0,100,0.00,40.00,0,-999,0,0.06
2012-8-25,83,64,45,-100,-100,-100,0,0,100,0.00,40.00,0,-999,0,0.01
2012-8-26,79,67,54,-100,-100,-100,0,0,100,0.00,40.00,0,-999,0,0.01
2012-8-27,89,69,52,-100,-100,-100,0,0,100,0.00,40.00,0,-999,0,0.07
2012-8-28,88,78,61,-100,-100,-100,0,0,100,0.00,40.00,0,-999,0,0.06
2012-8-29,86,72,59,-100,-100,-100,0,0,100,0.00,40.00,0,-999,0,0.02
2012-8-30,82,70,53,-100,-100,-100,0,0,100,0.00,40.00,0,-999,0,0.00
2012-8-31,74,62,54,-100,-100,-100,0,0,100,0.00,40.00,0,-999,0,0.00
2012-9-1,70,57,48,-100,-100,-100,0,0,100,0.00,40.00,0,-999,0,1.09
2012-9-2,76,59,45,-100,-100,-100,0,0,100,0.00,40.00,0,-999,0,0.68
2012-9-3,78,64,50,-100,-100,-100,0,0,100,0.00,40.00,0,-999,0,0.02
2012-9-4,79,67,51,-100,-100,-100,0,0,100,0.00,40.00,0,-999,0,0.02
2012-9-5,78,63,47,-100,-100,-100,0,0,100,0.00,40.00,0,-999,0,0.00
2012-9-6,67,57,49,-100,-100,-100,0,0,100,0.00,40.00,0,-999,0,0.03
2012-9-7,77,59,42,-100,-100,-100,0,0,100,0.00,40.00,0,-999,0,0.03
2012-9-8,81,62,45,-100,-100,-100,0,0,100,0.00,40.00,0,-999,0,0.00
2012-9-9,82,66,48,-100,-100,-100,0,0,100,0.00,40.00,0,-999,0,0.00
2012-9-10,74,66,57,-100,-100,-100,0,0,100,0.00,40.00,0,-999,0,0.09
2012-9-11,71,59,46,-100,-100,-100,0,0,100,0.00,40.00,0,-999,0,0.02
2012-9-12,71,50,35,-100,-100,-100,0,0,100,0.00,40.00,0,-999,0,0.00
2012-9-13,80,53,38,-100,-100,-100,0,0,100,0.00,40.00,0,-999,0,0.00
2012-9-14,83,66,46,-100,-100,-100,0,0,100,0.00,40.00,0,-999,0,0.00
2012-9-15,81,71,55,-100,-100,-100,0,0,100,0.00,40.00,0,-999,0,0.00
2012-9-16,77,60,45,-100,-100,-100,0,0,100,0.00,40.00,0,-999,0,0.00
2012-9-17,74,56,40,-100,-100,-100,0,0,100,0.00,40.00,0,-999,0,0.00
2012-9-18,78,59,45,-100,-100,-100,0,0,100,0.00,40.00,0,-999,0,0.00
2012-9-19,78,62,45,-100,-100,-100,0,0,100,0.00,40.00,0,-999,0,0.00
2012-9-20,80,58,42,-100,-100,-100,0,0,100,0.00,40.00,0,-999,0,0.00
2012-9-21,86,60,45,-100,-100,-100,0,0,100,0.00,40.00,0,-999,0,0.00
2012-9-22,84,66,49,-100,-100,-100,0,0,100,0.00,40.00,0,-999,0,0.00
2012-9-23,72,62,54,-100,-100,-100,0,0,100,0.00,40.00,0,-999,0,0.00
2012-9-24,73,52,46,-100,-100,-100,0,0,100,0.00,40.00,0,-999,0,0.58
2012-9-25,73,50,45,-100,-100,-100,0,0,100,0.00,40.00,0,-999,0,0.11
2012-9-26,75,51,41,-100,-100,-100,0,0,100,0.00,40.00,0,-999,0,0.06
2012-9-27,76,56,43,-100,-100,-100,0,0,100,0.00,40.00,0,-999,0,0.01
2012-9-28,75,57,45,-100,-100,-100,0,0,100,0.00,40.00,0,-999,0,0.07
2012-9-29,72,58,50,-100,-100,-100,0,0,100,0.00,40.00,0,-999,0,0.07
2012-9-30,76,62,44,-100,-100,-100,0,0,100,0.00,40.00,0,-999,0,0.00
2012-10-1,78,56,42,-100,-100,-100,0,0,100,0.00,40.00,0,-999,0,0.00
2012-10-2,70,62,51,-100,-100,-100,0,0,100,0.00,40.00,0,-999,0,0.00
2012-10-3,57,48,30,-100,-100,-100,0,0,100,0.00,40.00,0,-999,0,0.00
2012-10-4,57,36,24,-100,-100,-100,0,0,100,0.00,40.00,0,-999,0,0.00
2012-10-5,53,34,23,-100,-100,-100,0,0,100,0.00,40.00,0,-999,0,0.00
2012-10-6,54,33,19,-100,-100,-100,0,0,100,0.00,40.00,0,-999,0,0.00
2012-10-7,59,38,23,-100,-100,-100,0,0,100,0.00,40.00,0,-999,0,0.00
2012-10-8,64,46,32,-100,-100,-100,0,0,100,0.00,40.00,0,-999,0,0.00
2012-10-9,64,46,32,-100,-100,-100,0,0,100,0.00,40.00,0,-999,0,0.00
2012-10-10,73,54,38,-100,-100,-100,0,0,100,0.00,40.00,0,-999,0,0.00
2012-10-11,75,58,48,-100,-100,-100,0,0,100,0.00,40.00,0,-999,0,0.00
2012-10-12,75,60,48,-100,-100,-100,0,0,100,0.00,40.00,0,-999,0,0.00
2012-10-13,53,48,41,-100,-100,-100,0,0,100,0.00,40.00,0,-999,0,0.00
2012-10-14,63,48,36,-100,-100,-100,0,0,100,0.00,40.00,0,-999,0,0.00
2012-10-15,58,50,40,-100,-100,-100,0,0,100,0.00,40.00,0,-999,0,0.05
2012-10-16,52,46,33,-100,-100,-100,0,0,100,0.00,40.00,0,-999,0,0.33
2012-10-17,44,35,27,-100,-100,-100,0,0,100,0.00,40.00,0,-999,0,0.08
2012-10-18,56,39,26,-100,-100,-100,0,0,100,0.00,40.00,0,-999,0,0.03
2012-10-19,55,48,34,-100,-100,-100,0,0,100,0.00,40.00,0,-999,0,0.02
2012-10-20,54,50,46,-100,-100,-100,0,0,100,0.00,40.00,0,-999,0,0.03
2012-10-21,49,44,39,-100,-100,-100,0,0,100,0.00,40.00,0,-999,0,0.03
2012-10-22,43,39,37,-100,-100,-100,0,0,100,0.00,40.00,0,-999,0,0.46
2012-10-23,35,32,28,-100,-100,-100,0,0,100,0.00,40.00,0,-999,0,0.34
2012-10-24,40,30,22,-100,-100,-100,0,0,100,0.00,40.00,0,-999,0,0.01
2012-10-25,31,27,25,-100,-100,-100,0,0,100,0.00,40.00,0,-999,0,0.31
2012-10-26,29,25,18,-100,-100,-100,0,0,100,0.00,40.00,0,-999,0,0.30
2012-10-27,35,32,27,-100,-100,-100,0,0,100,0.00,40.00,0,-999,0,0.06
2012-10-28,45,40,34,-100,-100,-100,0,0,100,0.00,40.00,0,-999,0,0.23
2012-10-29,57,48,45,-100,-100,-100,0,0,100,0.00,40.00,0,-999,0,0.08
2012-10-30,56,48,40,-100,-100,-100,0,0,100,0.00,40.00,0,-999,0,0.04
2012-10-31,63,54,42,-100,-100,-100,0,0,100,0.00,40.00,0,-999,0,0.01
2012-11-1,54,47,39,-100,-100,-100,0,0,100,0.00,40.00,0,-999,0,0.01
2012-11-2,54,42,34,-100,-100,-100,0,0,100,0.00,40.00,0,-999,0,0.01
2012-11-3,52,42,32,-100,-100,-100,0,0,100,0.00,40.00,0,-999,0,0.01
2012-11-4,55,44,37,-100,-100,-100,0,0,100,0.00,40.00,0,-999,0,0.01
2012-11-5,56,44,34,-100,-100,-100,0,0,100,0.00,40.00,0,-999,0,0.00
2012-11-6,60,47,40,-100,-100,-100,0,0,100,0.00,40.00,0,-999,0,0.01
2012-11-7,59,51,41,-100,-100,-100,0,0,100,0.00,40.00,0,-999,0,0.02
2012-11-8,55,46,35,-100,-100,-100,0,0,100,0.00,40.00,0,-999,0,0.02
2012-11-9,38,31,23,-100,-100,-100,0,0,100,0.00,40.00,0,-999,0,0.21
2012-11-10,26,20,14,-100,-100,-100,0,0,100,0.00,40.00,0,-999,0,0.15
2012-11-11,22,15,10,-100,-100,-100,0,0,100,0.00,40.00,0,-999,0,0.05
2012-11-12,37,23,17,-100,-100,-100,0,0,100,0.00,40.00,0,-999,0,0.02
2012-11-13,38,28,22,-100,-100,-100,0,0,100,0.00,40.00,0,-999,0,0.02
2012-11-14,33,31,29,-100,-100,-100,0,0,100,0.00,40.00,0,-999,0,0.18
2012-11-15,43,30,18,-100,-100,-100,0,0,100,0.00,40.00,0,-999,0,0.09
2012-11-16,44,37,29,-100,-100,-100,0,0,100,0.00,40.00,0,-999,0,0.04
2012-11-17,45,40,36,-100,-100,-100,0,0,100,0.00,40.00,0,-999,0,0.00
2012-11-18,41,37,33,-100,-100,-100,0,0,100,0.00,40.00,0,-999,0,0.16
2012-11-19,41,38,32,-100,-100,-100,0,0,100,0.00,40.00,0,-999,0,0.16
2012-11-20,46,43,41,-100,-100,-100,0,0,100,0.00,40.00,0,-999,0,0.00
2012-11-21,47,41,32,-100,-100,-100,0,0,100,0.00,40.00,0,-999,0,0.12
2012-11-22,39,28,22,-100,-100,-100,0,0,100,0.00,40.00,0,-999,0,0.09
2012-11-23,50,30,19,-100,-100,-100,0,0,100,0.00,40.00,0,-999,0,0.00
2012-11-24,42,39,35,-100,-100,-100,0,0,100,0.00,40.00,0,-999,0,0.15
2012-11-25,36,32,26,-100,-100,-100,0,0,100,0.00,40.00,0,-999,0,0.57
2012-11-26,25,20,16,-100,-100,-100,0,0,100,0.00,40.00,0,-999,0,0.42
2012-11-27,42,32,23,-100,-100,-100,0,0,100,0.00,40.00,0,-999,0,0.00
2012-11-28,49,38,29,-100,-100,-100,0,0,100,0.00,40.00,0,-999,0,0.04
2012-11-29,43,39,35,-100,-100,-100,0,0,100,0.00,40.00,0,-999,0,0.05
2012-11-30,43,40,35,-100,-100,-100,0,0,100,0.00,40.00,0,-999,0,0.25
2012-12-1,41,38,34,-100,-100,-100,0,0,100,0.00,40.00,0,-999,0,0.38
2012-12-2,46,40,31,-100,-100,-100,0,0,100,0.00,40.00,0,-999,0,0.43
2012-12-3,32,28,25,-100,-100,-100,0,0,100,0.00,40.00,0,-999,0,0.17
2012-12-4,37,33,26,-100,-100,-100,0,0,100,0.00,40.00,0,-999,0,0.02
2012-12-5,39,37,35,-100,-100,-100,0,0,100,0.00,40.00,0,-999,0,0.25
2012-12-6,37,34,30,-100,-100,-100,0,0,100,0.00,40.00,0,-999,0,0.02
2012-12-7,29,26,24,-100,-100,-100,0,0,100,0.00,40.00,0,-999,0,0.05
2012-12-8,27,21,15,-100,-100,-100,0,0,100,0.00,40.00,0,-999,0,0.02
2012-12-9,23,14,7,-100,-100,-100,0,0,100,0.00,40.00,0,-999,0,0.03
2012-12-10,27,22,16,-100,-100,-100,0,0,100,0.00,40.00,0,-999,0,0.07
2012-12-11,34,27,23,-100,-100,-100,0,0,100,0.00,40.00,0,-999,0,0.02
2012-12-12,34,32,27,-100,-100,-100,0,0,100,0.00,40.00,0,-999,0,0.02
2012-12-13,38,32,26,-100,-100,-100,0,0,100,0.00,40.00,0,-999,0,0.02
2012-12-14,38,33,28,-100,-100,-100,0,0,100,0.00,40.00,0,-999,0,0.12
2012-12-15,27,24,20,-100,-100,-100,0,0,100,0.00,40.00,0,-999,0,0.19
2012-12-16,25,22,20,-100,-100,-100,0,0,100,0.00,40.00,0,-999,0,0.07
2012-12-17,32,27,21,-100,-100,-100,0,0,100,0.00,40.00,0,-999,0,0.20
2012-12-18,27,15,5,-100,-100,-100,0,0,100,0.00,40.00,0,-999,0,0.01
2012-12-19,18,8,2,-100,-100,-100,0,0,100,0.00,40.00,0,-999,0,0.00
2012-12-20,25,15,7,-100,-100,-100,0,0,100,0.00,40.00,0,-999,0,0.00
2012-12-21,48,31,23,-100,-100,-100,0,0,100,0.00,40.00,0,-999,0,0.00
2012-12-22,39,33,26,-100,-100,-100,0,0,100,0.00,40.00,0,-999,0,0.00
2012-12-23,29,26,24,-100,-100,-100,0,0,100,0.00,40.00,0,-999,0,0.00
2012-12-24,31,25,18,-100,-100,-100,0,0,100,0.00,40.00,0,-999,0,0.09
2012-12-25,23,15,11,-100,-100,-100,0,0,100,0.00,40.00,0,-999,0,0.02
2012-12-26,25,20,17,-100,-100,-100,0,0,100,0.00,40.00,0,-999,0,0.09
2012-12-27,24,17,15,-100,-100,-100,0,0,100,0.00,40.00,0,-999,0,0.12
2012-12-28,25,17,13,-100,-100,-100,0,0,100,0.00,40.00,0,-999,0,0.03
2012-12-29,24,12,6,-100,-100,-100,0,0,100,0.00,40.00,0,-999,0,0.01
2012-12-30,27,14,7,-100,-100,-100,0,0,100,0.00,40.00,0,-999,0,0.01
2012-12-31,23,8,3,-100,-100,-100,0,0,100,0.00,40.00,0,-999,0,0.01
2013-1-1,16,9,2,-100,-100,-100,0,0,100,0.00,40.00,0,-999,0,0.02